createdAt,value
2017-03-27T00:00:54.279Z,10.15
2017-03-27T00:01:54.287Z,10.09
2017-03-27T00:02:54.313Z,9.97
2017-03-27T00:03:54.637Z,9.95
2017-03-27T00:04:54.646Z,9.99
2017-03-27T00:05:54.663Z,10.05
2017-03-27T00:06:54.680Z,9.97
2017-03-27T00:07:54.696Z,9.94
2017-03-27T00:08:54.721Z,9.97
2017-03-27T00:09:54.728Z,9.89
2017-03-27T00:10:54.752Z,9.97
2017-03-27T00:11:54.872Z,9.89
2017-03-27T00:12:54.782Z,9.94
2017-03-27T00:13:54.797Z,9.94
2017-03-27T00:14:54.808Z,9.91
2017-03-27T00:15:54.828Z,9.89
2017-03-27T00:16:54.846Z,9.86
2017-03-27T00:17:54.549Z,9.84
2017-03-27T00:18:54.878Z,9.92
2017-03-27T00:19:54.889Z,9.8
2017-03-27T00:20:54.905Z,9.82
2017-03-27T00:21:54.609Z,9.84
2017-03-27T00:22:54.934Z,9.89
2017-03-27T00:23:54.954Z,9.89
2017-03-27T00:24:54.967Z,9.77
2017-03-27T00:25:54.983Z,9.8
2017-03-27T00:26:54.994Z,9.84
2017-03-27T00:27:55.016Z,9.83
2017-03-27T00:28:55.027Z,9.89
2017-03-27T00:29:55.049Z,9.74
2017-03-27T00:30:55.056Z,9.84
2017-03-27T00:31:55.073Z,9.77
2017-03-27T00:32:55.090Z,9.72
2017-03-27T00:33:55.102Z,9.76
2017-03-27T00:34:55.118Z,9.79
2017-03-27T00:35:55.146Z,9.8
2017-03-27T00:36:55.150Z,9.62
2017-03-27T00:37:55.165Z,9.8
2017-03-27T00:38:55.183Z,9.77
2017-03-27T00:39:55.201Z,9.72
2017-03-27T00:40:55.210Z,9.72
2017-03-27T00:41:55.225Z,9.69
2017-03-27T00:42:54.937Z,9.65
2017-03-27T00:43:55.258Z,9.65
2017-03-27T00:44:55.281Z,9.72
2017-03-27T00:45:55.289Z,9.69
2017-03-27T00:46:55.308Z,9.66
2017-03-27T00:47:55.510Z,9.64
2017-03-27T00:48:55.338Z,9.69
2017-03-27T00:49:55.349Z,9.69
2017-03-27T00:50:55.496Z,9.69
2017-03-27T00:51:55.388Z,9.66
2017-03-27T00:52:55.540Z,9.64
2017-03-27T00:53:55.414Z,9.55
2017-03-27T00:54:55.426Z,9.54
2017-03-27T00:55:55.567Z,9.56
2017-03-27T00:56:55.471Z,9.55
2017-03-27T00:57:55.606Z,9.54
2017-03-27T00:58:55.499Z,9.59
2017-03-27T00:59:55.505Z,9.58
2017-03-27T01:00:55.212Z,9.58
2017-03-27T01:01:55.532Z,9.51
2017-03-27T01:02:55.557Z,9.48
2017-03-27T01:03:55.568Z,9.54
2017-03-27T01:04:55.583Z,9.41
2017-03-27T01:05:55.594Z,9.46
2017-03-27T01:06:55.611Z,9.54
2017-03-27T01:07:55.638Z,9.47
2017-03-27T01:08:55.645Z,9.47
2017-03-27T01:09:55.655Z,9.43
2017-03-27T01:10:55.675Z,9.46
2017-03-27T01:11:55.689Z,9.4
2017-03-27T01:12:55.698Z,9.44
2017-03-27T01:13:55.725Z,9.46
2017-03-27T01:14:55.734Z,9.44
2017-03-27T01:15:55.751Z,9.46
2017-03-27T01:16:55.766Z,9.46
2017-03-27T01:17:55.778Z,9.37
2017-03-27T01:18:55.483Z,9.39
2017-03-27T01:19:55.818Z,9.29
2017-03-27T01:20:55.825Z,9.36
2017-03-27T01:21:55.843Z,9.34
2017-03-27T01:22:55.856Z,9.32
2017-03-27T01:23:55.879Z,9.32
2017-03-27T01:24:55.885Z,9.36
2017-03-27T01:25:55.898Z,9.28
2017-03-27T01:26:55.912Z,9.36
2017-03-27T01:27:55.928Z,9.21
2017-03-27T01:28:55.944Z,9.34
2017-03-27T01:29:55.962Z,9.21
2017-03-27T01:30:55.970Z,9.32
2017-03-27T01:31:55.988Z,9.25
2017-03-27T01:32:56.004Z,9.31
2017-03-27T01:33:56.019Z,9.26
2017-03-27T01:34:56.034Z,9.26
2017-03-27T01:35:56.049Z,9.22
2017-03-27T01:36:56.059Z,9.28
2017-03-27T01:37:56.081Z,9.19
2017-03-27T01:38:56.094Z,9.16
2017-03-27T01:39:56.115Z,9.1
2017-03-27T01:40:56.124Z,9.16
2017-03-27T01:41:56.140Z,9.18
2017-03-27T01:42:56.165Z,9.16
2017-03-27T01:43:56.173Z,9.16
2017-03-27T01:44:56.190Z,9.14
2017-03-27T01:45:56.199Z,9.13
2017-03-27T01:46:55.905Z,9.1
2017-03-27T01:47:56.239Z,9.08
2017-03-27T01:48:56.250Z,9.14
2017-03-27T01:49:56.259Z,9.11
2017-03-27T01:50:56.277Z,9.04
2017-03-27T01:51:56.290Z,9.11
2017-03-27T01:52:56.304Z,9.06
2017-03-27T01:53:56.317Z,9.06
2017-03-27T01:54:56.449Z,9.06
2017-03-27T01:55:56.135Z,9
2017-03-27T01:56:56.569Z,9.14
2017-03-27T01:57:56.681Z,9.03
2017-03-27T01:58:56.442Z,8.99
2017-03-27T01:59:56.496Z,8.95
2017-03-27T02:00:56.490Z,8.99
2017-03-27T02:01:56.434Z,8.97
2017-03-27T02:02:56.448Z,9.04
2017-03-27T02:03:56.571Z,9
2017-03-27T02:04:56.502Z,9
2017-03-27T02:05:56.492Z,8.97
2017-03-27T02:06:56.663Z,8.99
2017-03-27T02:07:56.702Z,9.03
2017-03-27T02:08:56.541Z,8.95
2017-03-27T02:09:56.561Z,8.99
2017-03-27T02:10:56.694Z,8.94
2017-03-27T02:11:56.665Z,8.97
2017-03-27T02:12:56.601Z,8.99
2017-03-27T02:13:56.619Z,8.97
2017-03-27T02:14:56.631Z,8.88
2017-03-27T02:15:56.637Z,8.87
2017-03-27T02:16:56.658Z,8.92
2017-03-27T02:17:56.681Z,8.84
2017-03-27T02:18:56.704Z,8.88
2017-03-27T02:19:56.390Z,8.88
2017-03-27T02:20:56.731Z,8.92
2017-03-27T02:21:56.731Z,8.79
2017-03-27T02:22:56.745Z,8.78
2017-03-27T02:23:56.767Z,8.82
2017-03-27T02:24:56.784Z,8.82
2017-03-27T02:25:56.784Z,8.84
2017-03-27T02:26:56.804Z,8.84
2017-03-27T02:27:56.816Z,8.82
2017-03-27T02:28:56.837Z,8.76
2017-03-27T02:29:56.848Z,8.78
2017-03-27T02:30:56.984Z,8.81
2017-03-27T02:31:56.989Z,8.79
2017-03-27T02:32:56.890Z,8.84
2017-03-27T02:33:57.045Z,8.78
2017-03-27T02:34:56.923Z,8.81
2017-03-27T02:35:56.938Z,8.78
2017-03-27T02:36:56.949Z,8.84
2017-03-27T02:37:56.766Z,8.73
2017-03-27T02:38:57.308Z,8.82
2017-03-27T02:39:57.015Z,8.74
2017-03-27T02:40:56.696Z,8.78
2017-03-27T02:41:57.023Z,8.7
2017-03-27T02:42:57.037Z,8.69
2017-03-27T02:43:57.054Z,8.64
2017-03-27T02:44:57.067Z,8.67
2017-03-27T02:45:57.078Z,8.79
2017-03-27T02:46:57.301Z,8.7
2017-03-27T02:47:57.113Z,8.76
2017-03-27T02:48:57.140Z,8.78
2017-03-27T02:49:57.139Z,8.76
2017-03-27T02:50:57.149Z,8.71
2017-03-27T02:51:57.166Z,8.69
2017-03-27T02:52:57.212Z,8.66
2017-03-27T02:53:56.884Z,8.7
2017-03-27T02:54:56.904Z,8.76
2017-03-27T02:55:56.908Z,8.71
2017-03-27T02:56:56.925Z,8.7
2017-03-27T02:57:57.272Z,8.64
2017-03-27T02:58:57.278Z,8.64
2017-03-27T02:59:56.974Z,8.67
2017-03-27T03:00:57.296Z,8.58
2017-03-27T03:01:57.001Z,8.63
2017-03-27T03:02:57.330Z,8.63
2017-03-27T03:03:57.346Z,8.61
2017-03-27T03:04:57.355Z,8.63
2017-03-27T03:05:57.370Z,8.64
2017-03-27T03:06:57.387Z,8.64
2017-03-27T03:07:57.089Z,8.63
2017-03-27T03:08:57.412Z,8.63
2017-03-27T03:09:57.432Z,8.61
2017-03-27T03:10:57.463Z,8.53
2017-03-27T03:11:57.471Z,8.48
2017-03-27T03:12:57.475Z,8.52
2017-03-27T03:13:57.482Z,8.52
2017-03-27T03:14:57.498Z,8.53
2017-03-27T03:15:57.512Z,8.6
2017-03-27T03:16:57.228Z,8.58
2017-03-27T03:17:57.542Z,8.56
2017-03-27T03:18:57.558Z,8.51
2017-03-27T03:19:57.591Z,8.48
2017-03-27T03:20:57.591Z,8.52
2017-03-27T03:21:57.600Z,8.52
2017-03-27T03:22:57.615Z,8.49
2017-03-27T03:23:57.630Z,8.53
2017-03-27T03:24:57.642Z,8.51
2017-03-27T03:25:57.655Z,8.41
2017-03-27T03:26:57.669Z,8.48
2017-03-27T03:27:57.690Z,8.51
2017-03-27T03:28:57.703Z,8.44
2017-03-27T03:29:57.719Z,8.52
2017-03-27T03:30:57.728Z,8.44
2017-03-27T03:31:57.738Z,8.44
2017-03-27T03:32:57.762Z,8.41
2017-03-27T03:33:57.775Z,8.41
2017-03-27T03:34:57.782Z,8.44
2017-03-27T03:35:57.802Z,8.49
2017-03-27T03:36:57.818Z,8.33
2017-03-27T03:37:57.831Z,8.37
2017-03-27T03:38:57.845Z,8.37
2017-03-27T03:39:57.889Z,8.36
2017-03-27T03:40:57.869Z,8.34
2017-03-27T03:41:57.887Z,8.34
2017-03-27T03:42:57.899Z,8.37
2017-03-27T03:43:57.912Z,8.38
2017-03-27T03:44:58.046Z,8.34
2017-03-27T03:45:58.057Z,8.31
2017-03-27T03:46:58.063Z,8.36
2017-03-27T03:47:57.998Z,8.31
2017-03-27T03:48:57.995Z,8.36
2017-03-27T03:49:58.004Z,8.36
2017-03-27T03:50:58.014Z,8.33
2017-03-27T03:51:58.149Z,8.24
2017-03-27T03:52:58.160Z,8.33
2017-03-27T03:53:58.171Z,8.19
2017-03-27T03:54:58.180Z,8.27
2017-03-27T03:55:58.185Z,8.26
2017-03-27T03:56:58.203Z,8.23
2017-03-27T03:57:58.215Z,8.23
2017-03-27T03:58:58.224Z,8.27
2017-03-27T03:59:58.140Z,8.19
2017-03-27T04:00:58.284Z,8.2
2017-03-27T04:01:58.283Z,8.18
2017-03-27T04:02:58.451Z,8.23
2017-03-27T04:03:58.488Z,8.2
2017-03-27T04:04:58.305Z,8.19
2017-03-27T04:05:58.333Z,8.26
2017-03-27T04:06:58.430Z,8.2
2017-03-27T04:07:58.437Z,8.18
2017-03-27T04:08:58.453Z,8.12
2017-03-27T04:09:58.590Z,8.27
2017-03-27T04:10:58.462Z,8.2
2017-03-27T04:11:58.469Z,8.19
2017-03-27T04:12:58.474Z,8.13
2017-03-27T04:13:58.478Z,8.13
2017-03-27T04:14:58.691Z,8.19
2017-03-27T04:15:58.494Z,8.18
2017-03-27T04:16:58.495Z,8.18
2017-03-27T04:17:58.512Z,8.18
2017-03-27T04:18:58.555Z,8.18
2017-03-27T04:19:58.609Z,8.15
2017-03-27T04:20:58.568Z,8.09
2017-03-27T04:21:58.581Z,8.12
2017-03-27T04:22:58.272Z,8.15
2017-03-27T04:23:58.587Z,8.16
2017-03-27T04:24:58.872Z,8.1
2017-03-27T04:25:58.609Z,8.12
2017-03-27T04:26:58.601Z,8.09
2017-03-27T04:27:58.608Z,8.12
2017-03-27T04:28:58.623Z,8.1
2017-03-27T04:29:58.697Z,8.05
2017-03-27T04:30:58.665Z,8.03
2017-03-27T04:31:58.597Z,8.06
2017-03-27T04:32:58.609Z,8.1
2017-03-27T04:33:58.621Z,8.05
2017-03-27T04:34:58.678Z,8.03
2017-03-27T04:35:58.644Z,8.01
2017-03-27T04:36:58.345Z,8.01
2017-03-27T04:37:58.676Z,8
2017-03-27T04:38:58.686Z,8.06
2017-03-27T04:39:58.751Z,7.98
2017-03-27T04:40:58.709Z,8.05
2017-03-27T04:41:58.724Z,8
2017-03-27T04:42:58.746Z,8.03
2017-03-27T04:43:58.755Z,8
2017-03-27T04:44:58.769Z,8.01
2017-03-27T04:45:58.783Z,8.05
2017-03-27T04:46:58.795Z,7.97
2017-03-27T04:47:58.818Z,8.05
2017-03-27T04:48:58.823Z,7.95
2017-03-27T04:49:58.894Z,7.98
2017-03-27T04:50:58.860Z,7.97
2017-03-27T04:51:58.869Z,7.95
2017-03-27T04:52:58.882Z,7.95
2017-03-27T04:53:58.890Z,7.98
2017-03-27T04:54:58.597Z,7.95
2017-03-27T04:55:58.922Z,7.94
2017-03-27T04:56:58.934Z,7.98
2017-03-27T04:57:58.954Z,7.98
2017-03-27T04:58:58.964Z,8
2017-03-27T04:59:58.976Z,8.05
2017-03-27T05:00:58.986Z,7.88
2017-03-27T05:01:59.007Z,7.95
2017-03-27T05:02:59.022Z,8.05
2017-03-27T05:03:59.034Z,8.03
2017-03-27T05:04:59.264Z,7.97
2017-03-27T05:05:59.065Z,7.95
2017-03-27T05:06:59.146Z,7.94
2017-03-27T05:07:59.157Z,7.98
2017-03-27T05:08:59.100Z,7.93
2017-03-27T05:09:59.120Z,7.91
2017-03-27T05:10:59.134Z,8.01
2017-03-27T05:11:59.141Z,7.98
2017-03-27T05:12:59.160Z,7.93
2017-03-27T05:13:59.169Z,7.93
2017-03-27T05:14:59.185Z,7.88
2017-03-27T05:15:59.200Z,7.93
2017-03-27T05:16:59.215Z,7.91
2017-03-27T05:17:59.233Z,7.91
2017-03-27T05:18:59.243Z,7.91
2017-03-27T05:19:58.947Z,7.94
2017-03-27T05:20:59.265Z,7.94
2017-03-27T05:21:59.400Z,7.95
2017-03-27T05:22:59.298Z,7.93
2017-03-27T05:23:59.438Z,7.88
2017-03-27T05:24:59.330Z,7.97
2017-03-27T05:25:59.338Z,7.97
2017-03-27T05:26:59.474Z,8.05
2017-03-27T05:27:59.176Z,7.95
2017-03-27T05:28:59.200Z,7.97
2017-03-27T05:29:59.522Z,8.01
2017-03-27T05:30:59.092Z,8.08
2017-03-27T05:31:59.421Z,7.98
2017-03-27T05:32:59.429Z,8.09
2017-03-27T05:33:59.447Z,8.09
2017-03-27T05:34:59.458Z,8.03
2017-03-27T05:35:59.472Z,8.12
2017-03-27T05:36:59.586Z,8.13
2017-03-27T05:37:59.501Z,8.06
2017-03-27T05:38:59.566Z,8.12
2017-03-27T05:39:59.529Z,8.1
2017-03-27T05:40:59.669Z,8.12
2017-03-27T05:41:59.558Z,8.18
2017-03-27T05:42:59.577Z,8.15
2017-03-27T05:43:59.594Z,8.19
2017-03-27T05:44:59.601Z,8.19
2017-03-27T05:45:59.611Z,8.19
2017-03-27T05:46:59.623Z,8.24
2017-03-27T05:47:59.330Z,8.24
2017-03-27T05:48:59.660Z,8.23
2017-03-27T05:49:59.766Z,8.18
2017-03-27T05:50:59.681Z,8.23
2017-03-27T05:51:59.696Z,8.23
2017-03-27T05:52:59.706Z,8.23
2017-03-27T05:53:59.725Z,8.23
2017-03-27T05:54:59.735Z,8.19
2017-03-27T05:55:59.746Z,8.19
2017-03-27T05:56:59.760Z,8.2
2017-03-27T05:57:59.775Z,8.27
2017-03-27T05:58:59.794Z,8.26
2017-03-27T05:59:59.804Z,8.37
2017-03-27T06:00:59.813Z,8.37
2017-03-27T06:01:59.832Z,8.28
2017-03-27T06:02:59.849Z,8.36
2017-03-27T06:03:59.862Z,8.3
2017-03-27T06:04:59.871Z,8.36
2017-03-27T06:05:59.887Z,8.38
2017-03-27T06:06:59.894Z,8.37
2017-03-27T06:07:59.918Z,8.31
2017-03-27T06:08:59.959Z,8.36
2017-03-27T06:09:59.945Z,8.45
2017-03-27T06:10:59.967Z,8.37
2017-03-27T06:11:59.990Z,8.42
2017-03-27T06:12:59.993Z,8.46
2017-03-27T06:14:00.006Z,8.49
2017-03-27T06:14:59.709Z,8.49
2017-03-27T06:16:00.049Z,8.51
2017-03-27T06:17:00.059Z,8.52
2017-03-27T06:18:00.048Z,8.52
2017-03-27T06:19:00.243Z,8.51
2017-03-27T06:20:00.079Z,8.64
2017-03-27T06:21:00.094Z,8.61
2017-03-27T06:22:00.115Z,8.67
2017-03-27T06:23:00.126Z,8.7
2017-03-27T06:24:00.139Z,8.69
2017-03-27T06:25:00.147Z,8.7
2017-03-27T06:26:00.163Z,8.73
2017-03-27T06:27:00.175Z,8.74
2017-03-27T06:28:00.194Z,8.81
2017-03-27T06:29:00.218Z,8.71
2017-03-27T06:30:00.232Z,8.82
2017-03-27T06:31:00.230Z,8.82
2017-03-27T06:31:59.932Z,8.97
2017-03-27T06:32:59.641Z,8.88
2017-03-27T06:33:59.651Z,8.84
2017-03-27T06:35:00.296Z,8.95
2017-03-27T06:36:00.305Z,8.94
2017-03-27T06:37:00.315Z,9.02
2017-03-27T06:38:00.462Z,9.08
2017-03-27T06:39:00.343Z,9.1
2017-03-27T06:40:00.363Z,9.08
2017-03-27T06:41:00.370Z,9.14
2017-03-27T06:42:00.384Z,9.16
2017-03-27T06:43:00.428Z,9.28
2017-03-27T06:44:00.415Z,9.29
2017-03-27T06:45:00.428Z,9.28
2017-03-27T06:46:00.445Z,9.29
2017-03-27T06:47:00.453Z,9.44
2017-03-27T06:48:00.157Z,9.43
2017-03-27T06:49:00.483Z,9.56
2017-03-27T06:50:00.504Z,9.59
2017-03-27T06:51:00.515Z,9.55
2017-03-27T06:52:00.535Z,9.72
2017-03-27T06:53:00.543Z,9.65
2017-03-27T06:54:00.561Z,9.77
2017-03-27T06:55:00.566Z,9.69
2017-03-27T06:56:00.579Z,9.74
2017-03-27T06:57:00.640Z,9.83
2017-03-27T06:58:00.617Z,9.82
2017-03-27T06:59:00.630Z,9.97
2017-03-27T07:00:00.645Z,9.97
2017-03-27T07:01:00.654Z,9.91
2017-03-27T07:02:00.675Z,10.04
2017-03-27T07:03:00.682Z,10.17
2017-03-27T07:04:00.746Z,10.15
2017-03-27T07:05:00.715Z,10.17
2017-03-27T07:06:00.727Z,10.23
2017-03-27T07:07:00.744Z,10.26
2017-03-27T07:08:00.766Z,10.3
2017-03-27T07:09:00.771Z,10.26
2017-03-27T07:10:00.787Z,10.33
2017-03-27T07:11:00.856Z,10.46
2017-03-27T07:12:00.814Z,10.44
2017-03-27T07:13:00.519Z,10.59
2017-03-27T07:14:00.858Z,10.54
2017-03-27T07:15:00.864Z,10.6
2017-03-27T07:16:00.875Z,10.61
2017-03-27T07:17:00.885Z,10.67
2017-03-27T07:18:00.905Z,10.71
2017-03-27T07:19:00.606Z,10.76
2017-03-27T07:20:00.947Z,10.81
2017-03-27T07:21:00.941Z,10.72
2017-03-27T07:22:00.967Z,10.82
2017-03-27T07:23:00.976Z,10.79
2017-03-27T07:24:00.997Z,10.92
2017-03-27T07:25:01.000Z,10.86
2017-03-27T07:26:01.015Z,10.89
2017-03-27T07:27:01.032Z,11
2017-03-27T07:28:01.061Z,11.02
2017-03-27T07:29:01.080Z,11.08
2017-03-27T07:30:01.074Z,11.14
2017-03-27T07:31:00.918Z,11.14
2017-03-27T07:32:01.233Z,11.22
2017-03-27T07:33:01.239Z,11.32
2017-03-27T07:34:01.271Z,11.33
2017-03-27T07:35:01.259Z,11.43
2017-03-27T07:36:01.271Z,11.41
2017-03-27T07:37:00.676Z,11.44
2017-03-27T07:38:01.314Z,11.45
2017-03-27T07:39:01.323Z,11.54
2017-03-27T07:40:01.335Z,11.59
2017-03-27T07:41:01.339Z,11.57
2017-03-27T07:42:01.335Z,11.62
2017-03-27T07:43:01.203Z,11.77
2017-03-27T07:44:01.372Z,11.68
2017-03-27T07:45:01.319Z,11.75
2017-03-27T07:46:01.316Z,11.8
2017-03-27T07:47:01.336Z,11.77
2017-03-27T07:48:01.349Z,11.73
2017-03-27T07:49:01.469Z,11.87
2017-03-27T07:50:01.109Z,11.87
2017-03-27T07:51:00.765Z,11.88
2017-03-27T07:52:01.411Z,11.91
2017-03-27T07:53:01.492Z,11.99
2017-03-27T07:54:01.494Z,12.09
2017-03-27T07:55:01.462Z,12.12
2017-03-27T07:56:01.496Z,12.12
2017-03-27T07:57:01.492Z,12.2
2017-03-27T07:58:01.502Z,12.25
2017-03-27T07:59:01.588Z,12.31
2017-03-27T08:00:01.544Z,12.42
2017-03-27T08:01:01.543Z,12.4
2017-03-27T08:02:01.273Z,12.29
2017-03-27T08:03:01.295Z,12.45
2017-03-27T08:04:01.287Z,12.45
2017-03-27T08:05:01.611Z,12.42
2017-03-27T08:06:01.621Z,12.53
2017-03-27T08:07:01.767Z,12.64
2017-03-27T08:08:01.788Z,12.67
2017-03-27T08:09:01.793Z,12.62
2017-03-27T08:10:03.111Z,12.61
2017-03-27T08:11:01.715Z,12.7
2017-03-27T08:12:01.845Z,12.75
2017-03-27T08:13:01.883Z,12.8
2017-03-27T08:14:01.892Z,12.85
2017-03-27T08:15:01.254Z,12.95
2017-03-27T08:16:01.861Z,12.9
2017-03-27T08:17:01.895Z,12.97
2017-03-27T08:18:01.880Z,13.05
2017-03-27T08:19:01.887Z,13.04
2017-03-27T08:20:01.686Z,13.03
2017-03-27T08:21:01.666Z,13.04
2017-03-27T08:22:01.973Z,13.03
2017-03-27T08:23:01.950Z,13.12
2017-03-27T08:24:01.609Z,13.09
2017-03-27T08:25:01.948Z,13.12
2017-03-27T08:26:01.940Z,13.15
2017-03-27T08:27:01.961Z,13.16
2017-03-27T08:28:01.978Z,13.2
2017-03-27T08:29:01.993Z,13.35
2017-03-27T08:30:02.026Z,13.31
2017-03-27T08:31:02.030Z,13.2
2017-03-27T08:32:02.040Z,13.33
2017-03-27T08:33:02.060Z,13.33
2017-03-27T08:34:02.069Z,13.37
2017-03-27T08:35:02.092Z,13.42
2017-03-27T08:36:02.106Z,13.37
2017-03-27T08:37:02.127Z,13.54
2017-03-27T08:38:02.142Z,13.65
2017-03-27T08:39:02.176Z,13.59
2017-03-27T08:40:02.167Z,13.7
2017-03-27T08:41:01.609Z,13.78
2017-03-27T08:42:02.203Z,13.78
2017-03-27T08:43:02.227Z,13.77
2017-03-27T08:44:01.922Z,13.87
2017-03-27T08:45:02.254Z,13.85
2017-03-27T08:46:02.273Z,13.85
2017-03-27T08:47:02.285Z,13.92
2017-03-27T08:48:02.300Z,13.95
2017-03-27T08:49:02.327Z,14
2017-03-27T08:50:02.339Z,14.08
2017-03-27T08:51:02.040Z,14.2
2017-03-27T08:52:02.399Z,14.22
2017-03-27T08:53:02.387Z,14.2
2017-03-27T08:54:02.404Z,14.28
2017-03-27T08:55:02.425Z,14.33
2017-03-27T08:56:02.431Z,14.32
2017-03-27T08:57:02.448Z,14.43
2017-03-27T08:58:02.476Z,14.51
2017-03-27T08:59:02.486Z,14.5
2017-03-27T09:00:02.509Z,14.62
2017-03-27T09:01:02.721Z,14.54
2017-03-27T09:02:02.529Z,14.62
2017-03-27T09:03:02.552Z,14.62
2017-03-27T09:04:02.572Z,14.72
2017-03-27T09:05:02.588Z,14.78
2017-03-27T09:06:02.603Z,14.73
2017-03-27T09:07:02.622Z,14.72
2017-03-27T09:08:02.638Z,14.96
2017-03-27T09:09:02.683Z,14.99
2017-03-27T09:10:02.667Z,15.04
2017-03-27T09:11:02.688Z,15.11
2017-03-27T09:12:02.701Z,15.1
2017-03-27T09:13:02.719Z,15.15
2017-03-27T09:14:02.442Z,15.14
2017-03-27T09:15:02.752Z,15.18
2017-03-27T09:16:02.769Z,15.27
2017-03-27T09:17:02.785Z,15.4
2017-03-27T09:18:02.806Z,15.43
2017-03-27T09:19:02.827Z,15.47
2017-03-27T09:20:02.913Z,15.52
2017-03-27T09:21:02.853Z,15.58
2017-03-27T09:22:02.892Z,15.64
2017-03-27T09:23:02.894Z,15.68
2017-03-27T09:24:02.910Z,15.76
2017-03-27T09:25:03.071Z,15.83
2017-03-27T09:26:03.071Z,15.91
2017-03-27T09:27:03.180Z,15.92
2017-03-27T09:28:02.783Z,16
2017-03-27T09:29:02.998Z,16.01
2017-03-27T09:30:03.042Z,16.02
2017-03-27T09:31:03.143Z,16.04
2017-03-27T09:32:03.053Z,16.08
2017-03-27T09:33:02.757Z,16.17
2017-03-27T09:34:03.092Z,16.16
2017-03-27T09:35:03.101Z,16.13
2017-03-27T09:36:03.135Z,16.28
2017-03-27T09:37:03.141Z,16.28
2017-03-27T09:38:02.861Z,16.36
2017-03-27T09:39:03.178Z,16.42
2017-03-27T09:40:03.196Z,16.42
2017-03-27T09:41:03.231Z,16.36
2017-03-27T09:42:02.952Z,16.35
2017-03-27T09:43:03.252Z,16.5
2017-03-27T09:44:02.767Z,16.54
2017-03-27T09:45:03.283Z,16.54
2017-03-27T09:46:03.309Z,16.57
2017-03-27T09:47:03.316Z,16.58
2017-03-27T09:48:03.344Z,16.65
2017-03-27T09:49:03.356Z,16.83
2017-03-27T09:50:03.390Z,16.76
2017-03-27T09:51:03.401Z,16.76
2017-03-27T09:52:03.114Z,16.78
2017-03-27T09:53:03.123Z,16.91
2017-03-27T09:54:03.463Z,17.01
2017-03-27T09:55:03.470Z,16.97
2017-03-27T09:56:03.489Z,17.06
2017-03-27T09:57:03.508Z,17.08
2017-03-27T09:58:03.529Z,17.14
2017-03-27T09:59:03.554Z,17.14
2017-03-27T10:00:03.573Z,17.27
2017-03-27T10:01:03.586Z,17.3
2017-03-27T10:02:03.598Z,17.33
2017-03-27T10:03:03.300Z,17.56
2017-03-27T10:04:03.633Z,17.49
2017-03-27T10:05:03.344Z,17.72
2017-03-27T10:06:03.377Z,17.72
2017-03-27T10:07:03.371Z,17.71
2017-03-27T10:08:03.104Z,17.78
2017-03-27T10:09:03.729Z,17.89
2017-03-27T10:10:03.432Z,17.89
2017-03-27T10:11:03.757Z,17.98
2017-03-27T10:12:03.784Z,18.07
2017-03-27T10:13:03.488Z,18.07
2017-03-27T10:14:03.523Z,18.11
2017-03-27T10:15:03.843Z,18.2
2017-03-27T10:16:03.544Z,18.33
2017-03-27T10:17:03.574Z,18.38
2017-03-27T10:18:03.893Z,18.41
2017-03-27T10:19:03.919Z,18.53
2017-03-27T10:20:03.935Z,18.62
2017-03-27T10:21:03.953Z,18.58
2017-03-27T10:22:03.672Z,18.78
2017-03-27T10:23:03.995Z,18.65
2017-03-27T10:24:03.717Z,18.77
2017-03-27T10:25:04.029Z,18.84
2017-03-27T10:26:04.049Z,18.88
2017-03-27T10:27:04.073Z,18.92
2017-03-27T10:28:03.777Z,18.9
2017-03-27T10:29:04.106Z,18.95
2017-03-27T10:30:04.134Z,18.96
2017-03-27T10:31:04.153Z,19.08
2017-03-27T10:32:04.167Z,19.11
2017-03-27T10:33:04.191Z,19.19
2017-03-27T10:34:04.205Z,19.3
2017-03-27T10:35:03.958Z,19.29
2017-03-27T10:36:04.247Z,19.29
2017-03-27T10:37:04.264Z,19.3
2017-03-27T10:38:04.293Z,19.37
2017-03-27T10:39:04.312Z,19.31
2017-03-27T10:40:04.355Z,19.41
2017-03-27T10:41:04.346Z,19.54
2017-03-27T10:42:04.377Z,19.54
2017-03-27T10:43:04.505Z,19.63
2017-03-27T10:44:04.410Z,19.58
2017-03-27T10:45:04.432Z,19.62
2017-03-27T10:46:03.825Z,19.77
2017-03-27T10:47:04.157Z,19.71
2017-03-27T10:48:04.491Z,19.84
2017-03-27T10:49:04.502Z,19.85
2017-03-27T10:50:04.530Z,19.94
2017-03-27T10:51:04.751Z,19.96
2017-03-27T10:52:04.647Z,19.92
2017-03-27T10:53:04.280Z,20.04
2017-03-27T10:54:04.660Z,20.02
2017-03-27T10:55:04.635Z,20.1
2017-03-27T10:56:04.770Z,20.03
2017-03-27T10:57:04.768Z,20.11
2017-03-27T10:58:04.790Z,20.18
2017-03-27T10:59:04.926Z,20.14
2017-03-27T11:00:04.824Z,20.24
2017-03-27T11:01:04.917Z,20.22
2017-03-27T11:02:04.925Z,20.36
2017-03-27T11:03:04.936Z,20.31
2017-03-27T11:04:05.161Z,20.47
2017-03-27T11:05:04.955Z,20.5
2017-03-27T11:06:04.641Z,20.56
2017-03-27T11:07:05.116Z,20.63
2017-03-27T11:08:05.115Z,20.7
2017-03-27T11:09:05.214Z,20.75
2017-03-27T11:10:05.133Z,20.81
2017-03-27T11:11:05.135Z,20.9
2017-03-27T11:12:05.141Z,20.84
2017-03-27T11:13:05.122Z,20.96
2017-03-27T11:14:05.141Z,20.85
2017-03-27T11:15:05.139Z,20.93
2017-03-27T11:16:05.102Z,20.96
2017-03-27T11:17:05.102Z,20.97
2017-03-27T11:18:05.115Z,20.99
2017-03-27T11:19:05.134Z,21.02
2017-03-27T11:20:05.160Z,21.07
2017-03-27T11:21:05.176Z,21.17
2017-03-27T11:22:04.893Z,21.18
2017-03-27T11:23:05.218Z,21.24
2017-03-27T11:24:04.930Z,21.24
2017-03-27T11:25:05.262Z,21.29
2017-03-27T11:26:04.971Z,21.33
2017-03-27T11:27:04.995Z,21.36
2017-03-27T11:28:05.022Z,21.37
2017-03-27T11:29:04.722Z,21.39
2017-03-27T11:30:05.477Z,21.45
2017-03-27T11:31:05.194Z,21.39
2017-03-27T11:32:05.415Z,21.5
2017-03-27T11:33:05.433Z,21.61
2017-03-27T11:34:05.460Z,21.54
2017-03-27T11:35:05.165Z,21.58
2017-03-27T11:36:05.208Z,21.6
2017-03-27T11:37:05.523Z,21.62
2017-03-27T11:38:05.276Z,21.69
2017-03-27T11:39:05.570Z,21.67
2017-03-27T11:40:05.587Z,21.7
2017-03-27T11:41:05.621Z,21.69
2017-03-27T11:42:05.646Z,21.77
2017-03-27T11:43:05.657Z,21.82
2017-03-27T11:44:05.725Z,21.8
2017-03-27T11:45:05.397Z,21.83
2017-03-27T11:46:05.415Z,21.82
2017-03-27T11:47:05.773Z,21.88
2017-03-27T11:48:05.769Z,21.85
2017-03-27T11:49:05.502Z,21.92
2017-03-27T11:50:05.389Z,21.96
2017-03-27T11:51:05.524Z,22
2017-03-27T11:52:05.237Z,21.96
2017-03-27T11:53:05.567Z,22.02
2017-03-27T11:54:05.895Z,22
2017-03-27T11:55:05.620Z,21.96
2017-03-27T11:56:05.965Z,22.06
2017-03-27T11:57:05.976Z,22.06
2017-03-27T11:58:05.695Z,22.15
2017-03-27T11:59:05.725Z,22.14
2017-03-27T12:00:05.755Z,22.13
2017-03-27T12:01:06.068Z,22.26
2017-03-27T12:02:05.766Z,22.23
2017-03-27T12:03:05.799Z,22.22
2017-03-27T12:04:05.836Z,22.23
2017-03-27T12:05:05.831Z,22.26
2017-03-27T12:06:05.872Z,22.32
2017-03-27T12:07:06.189Z,22.32
2017-03-27T12:08:06.213Z,22.38
2017-03-27T12:09:06.236Z,22.35
2017-03-27T12:10:06.282Z,22.39
2017-03-27T12:11:06.288Z,22.47
2017-03-27T12:12:06.333Z,22.54
2017-03-27T12:13:06.016Z,22.57
2017-03-27T12:14:06.379Z,22.55
2017-03-27T12:15:06.064Z,22.47
2017-03-27T12:16:06.418Z,22.47
2017-03-27T12:17:06.422Z,22.53
2017-03-27T12:18:06.448Z,22.6
2017-03-27T12:19:06.469Z,22.62
2017-03-27T12:20:06.522Z,22.62
2017-03-27T12:21:05.886Z,22.69
2017-03-27T12:22:06.236Z,22.66
2017-03-27T12:23:06.268Z,22.68
2017-03-27T12:24:06.579Z,22.7
2017-03-27T12:25:06.298Z,22.72
2017-03-27T12:26:06.646Z,22.8
2017-03-27T12:27:06.664Z,22.84
2017-03-27T12:28:06.357Z,22.78
2017-03-27T12:29:06.387Z,22.78
2017-03-27T12:30:06.733Z,22.81
2017-03-27T12:31:06.429Z,22.91
2017-03-27T12:32:06.778Z,22.9
2017-03-27T12:33:06.488Z,22.88
2017-03-27T12:34:06.815Z,22.9
2017-03-27T12:35:06.870Z,22.98
2017-03-27T12:36:06.545Z,22.98
2017-03-27T12:37:06.254Z,23
2017-03-27T12:38:06.592Z,23
2017-03-27T12:39:06.613Z,22.99
2017-03-27T12:40:06.670Z,22.99
2017-03-27T12:41:06.665Z,22.99
2017-03-27T12:42:07.001Z,23.08
2017-03-27T12:43:06.714Z,23.08
2017-03-27T12:44:06.434Z,23.2
2017-03-27T12:45:07.067Z,23.13
2017-03-27T12:46:07.092Z,23.13
2017-03-27T12:47:06.804Z,23.13
2017-03-27T12:48:07.138Z,23.13
2017-03-27T12:49:06.865Z,23.18
2017-03-27T12:50:07.208Z,23.24
2017-03-27T12:51:06.913Z,23.25
2017-03-27T12:52:07.290Z,23.23
2017-03-27T12:53:06.953Z,23.23
2017-03-27T12:54:06.974Z,23.24
2017-03-27T12:55:07.011Z,23.27
2017-03-27T12:56:07.016Z,23.25
2017-03-27T12:57:07.357Z,23.34
2017-03-27T12:58:07.376Z,23.4
2017-03-27T12:59:06.778Z,23.28
2017-03-27T13:00:07.451Z,23.39
2017-03-27T13:01:07.457Z,23.39
2017-03-27T13:02:07.180Z,23.41
2017-03-27T13:03:06.871Z,23.36
2017-03-27T13:04:07.519Z,23.39
2017-03-27T13:05:07.252Z,23.47
2017-03-27T13:06:07.564Z,23.48
2017-03-27T13:07:07.591Z,23.51
2017-03-27T13:08:07.621Z,23.59
2017-03-27T13:09:07.646Z,23.56
2017-03-27T13:10:07.353Z,23.59